sensor_id;sensor_type;location;lat;lon;timestamp;P1;durP1;ratioP1;P2;durP2;ratioP2
2105;SDS011;1059;52.548;13.408;2023-04-06T00:00:31;12.77;;;7.90;;
2105;SDS011;1059;52.548;13.408;2023-04-06T00:02:58;9.80;;;7.87;;
2105;SDS011;1059;52.548;13.408;2023-04-06T00:05:25;9.37;;;8.40;;
2105;SDS011;1059;52.548;13.408;2023-04-06T00:07:53;9.47;;;7.97;;
2105;SDS011;1059;52.548;13.408;2023-04-06T00:10:21;9.93;;;8.20;;
2105;SDS011;1059;52.548;13.408;2023-04-06T00:12:49;8.90;;;8.10;;
2105;SDS011;1059;52.548;13.408;2023-04-06T00:15:16;8.93;;;7.90;;
2105;SDS011;1059;52.548;13.408;2023-04-06T00:17:43;8.80;;;7.37;;
2105;SDS011;1059;52.548;13.408;2023-04-06T00:20:10;11.73;;;8.20;;
2105;SDS011;1059;52.548;13.408;2023-04-06T00:22:37;9.20;;;7.17;;
2105;SDS011;1059;52.548;13.408;2023-04-06T00:25:05;9.07;;;7.80;;
2105;SDS011;1059;52.548;13.408;2023-04-06T00:27:32;8.60;;;7.73;;
2105;SDS011;1059;52.548;13.408;2023-04-06T00:30:00;8.37;;;7.50;;
2105;SDS011;1059;52.548;13.408;2023-04-06T00:32:28;9.43;;;7.00;;
2105;SDS011;1059;52.548;13.408;2023-04-06T00:34:55;8.43;;;6.93;;
2105;SDS011;1059;52.548;13.408;2023-04-06T00:37:22;7.73;;;6.70;;
2105;SDS011;1059;52.548;13.408;2023-04-06T00:39:49;8.70;;;7.43;;
2105;SDS011;1059;52.548;13.408;2023-04-06T00:42:17;8.20;;;6.20;;
2105;SDS011;1059;52.548;13.408;2023-04-06T00:44:50;7.77;;;6.20;;
2105;SDS011;1059;52.548;13.408;2023-04-06T00:47:18;7.43;;;6.37;;
2105;SDS011;1059;52.548;13.408;2023-04-06T00:49:45;7.00;;;5.90;;
2105;SDS011;1059;52.548;13.408;2023-04-06T00:52:12;7.73;;;5.80;;
2105;SDS011;1059;52.548;13.408;2023-04-06T00:54:39;10.30;;;5.73;;
2105;SDS011;1059;52.548;13.408;2023-04-06T00:57:06;9.50;;;6.33;;
2105;SDS011;1059;52.548;13.408;2023-04-06T00:59:33;8.80;;;5.27;;
2105;SDS011;1059;52.548;13.408;2023-04-06T01:02:00;7.43;;;5.97;;
2105;SDS011;1059;52.548;13.408;2023-04-06T01:04:29;7.10;;;5.80;;
2105;SDS011;1059;52.548;13.408;2023-04-06T01:06:56;6.10;;;5.50;;
2105;SDS011;1059;52.548;13.408;2023-04-06T01:09:23;6.77;;;5.10;;
2105;SDS011;1059;52.548;13.408;2023-04-06T01:11:50;8.70;;;5.57;;
2105;SDS011;1059;52.548;13.408;2023-04-06T01:14:17;5.93;;;5.10;;
2105;SDS011;1059;52.548;13.408;2023-04-06T01:16:44;6.33;;;5.33;;
2105;SDS011;1059;52.548;13.408;2023-04-06T01:19:11;10.07;;;6.13;;
2105;SDS011;1059;52.548;13.408;2023-04-06T01:21:40;7.73;;;4.50;;
2105;SDS011;1059;52.548;13.408;2023-04-06T01:24:09;6.40;;;5.40;;
2105;SDS011;1059;52.548;13.408;2023-04-06T01:26:36;8.93;;;4.87;;
2105;SDS011;1059;52.548;13.408;2023-04-06T01:29:04;6.77;;;5.50;;
2105;SDS011;1059;52.548;13.408;2023-04-06T01:31:31;5.57;;;4.93;;
2105;SDS011;1059;52.548;13.408;2023-04-06T01:33:58;9.60;;;5.50;;
2105;SDS011;1059;52.548;13.408;2023-04-06T01:36:25;9.10;;;5.60;;
2105;SDS011;1059;52.548;13.408;2023-04-06T01:38:52;6.83;;;5.80;;
2105;SDS011;1059;52.548;13.408;2023-04-06T01:41:20;8.13;;;6.50;;
2105;SDS011;1059;52.548;13.408;2023-04-06T01:43:47;8.10;;;5.80;;
2105;SDS011;1059;52.548;13.408;2023-04-06T01:46:15;8.77;;;6.33;;
2105;SDS011;1059;52.548;13.408;2023-04-06T01:48:42;7.47;;;5.37;;
2105;SDS011;1059;52.548;13.408;2023-04-06T01:51:09;6.63;;;5.50;;
2105;SDS011;1059;52.548;13.408;2023-04-06T01:53:36;6.63;;;5.63;;
2105;SDS011;1059;52.548;13.408;2023-04-06T01:56:03;7.47;;;5.43;;
2105;SDS011;1059;52.548;13.408;2023-04-06T01:58:31;8.80;;;5.83;;
2105;SDS011;1059;52.548;13.408;2023-04-06T02:00:58;5.90;;;4.73;;
2105;SDS011;1059;52.548;13.408;2023-04-06T02:03:25;7.57;;;5.87;;
2105;SDS011;1059;52.548;13.408;2023-04-06T02:05:52;6.83;;;5.67;;
2105;SDS011;1059;52.548;13.408;2023-04-06T02:08:19;6.00;;;5.40;;
2105;SDS011;1059;52.548;13.408;2023-04-06T02:10:46;6.63;;;5.70;;
2105;SDS011;1059;52.548;13.408;2023-04-06T02:13:13;8.83;;;5.77;;
2105;SDS011;1059;52.548;13.408;2023-04-06T02:15:41;6.13;;;5.57;;
2105;SDS011;1059;52.548;13.408;2023-04-06T02:18:08;8.10;;;6.30;;
2105;SDS011;1059;52.548;13.408;2023-04-06T02:20:35;6.73;;;5.57;;
2105;SDS011;1059;52.548;13.408;2023-04-06T02:23:02;7.23;;;5.43;;
2105;SDS011;1059;52.548;13.408;2023-04-06T02:25:29;7.20;;;5.97;;
2105;SDS011;1059;52.548;13.408;2023-04-06T02:27:56;12.13;;;6.00;;
2105;SDS011;1059;52.548;13.408;2023-04-06T02:30:23;6.83;;;5.50;;
2105;SDS011;1059;52.548;13.408;2023-04-06T02:32:51;5.77;;;5.20;;
2105;SDS011;1059;52.548;13.408;2023-04-06T02:35:18;6.00;;;5.40;;
2105;SDS011;1059;52.548;13.408;2023-04-06T02:37:45;6.30;;;5.70;;
2105;SDS011;1059;52.548;13.408;2023-04-06T02:40:13;6.00;;;5.40;;
2105;SDS011;1059;52.548;13.408;2023-04-06T02:42:40;6.20;;;5.47;;
2105;SDS011;1059;52.548;13.408;2023-04-06T02:45:07;7.50;;;5.63;;
2105;SDS011;1059;52.548;13.408;2023-04-06T02:47:34;6.77;;;5.40;;
2105;SDS011;1059;52.548;13.408;2023-04-06T02:50:03;6.60;;;6.00;;
2105;SDS011;1059;52.548;13.408;2023-04-06T02:52:31;8.50;;;6.47;;
2105;SDS011;1059;52.548;13.408;2023-04-06T02:54:58;6.60;;;5.90;;
2105;SDS011;1059;52.548;13.408;2023-04-06T02:57:25;6.23;;;5.40;;
2105;SDS011;1059;52.548;13.408;2023-04-06T02:59:52;7.53;;;6.33;;
2105;SDS011;1059;52.548;13.408;2023-04-06T03:02:19;6.70;;;5.60;;
2105;SDS011;1059;52.548;13.408;2023-04-06T03:04:46;8.37;;;6.80;;
2105;SDS011;1059;52.548;13.408;2023-04-06T03:07:15;12.33;;;6.80;;
2105;SDS011;1059;52.548;13.408;2023-04-06T03:09:41;7.33;;;6.23;;
2105;SDS011;1059;52.548;13.408;2023-04-06T03:12:08;8.67;;;7.03;;
2105;SDS011;1059;52.548;13.408;2023-04-06T03:14:35;9.20;;;6.73;;
2105;SDS011;1059;52.548;13.408;2023-04-06T03:17:02;7.17;;;6.47;;
2105;SDS011;1059;52.548;13.408;2023-04-06T03:19:29;9.63;;;6.80;;
2105;SDS011;1059;52.548;13.408;2023-04-06T03:21:56;11.93;;;7.33;;
2105;SDS011;1059;52.548;13.408;2023-04-06T03:24:25;9.67;;;6.90;;
2105;SDS011;1059;52.548;13.408;2023-04-06T03:26:52;8.40;;;7.10;;
2105;SDS011;1059;52.548;13.408;2023-04-06T03:29:19;9.00;;;7.63;;
2105;SDS011;1059;52.548;13.408;2023-04-06T03:31:45;9.63;;;7.23;;
2105;SDS011;1059;52.548;13.408;2023-04-06T03:34:12;9.60;;;7.57;;
2105;SDS011;1059;52.548;13.408;2023-04-06T03:36:39;10.47;;;7.90;;
2105;SDS011;1059;52.548;13.408;2023-04-06T03:39:06;11.23;;;9.03;;
2105;SDS011;1059;52.548;13.408;2023-04-06T03:41:35;10.40;;;8.70;;
2105;SDS011;1059;52.548;13.408;2023-04-06T03:44:02;12.10;;;8.77;;
2105;SDS011;1059;52.548;13.408;2023-04-06T03:46:29;11.50;;;9.50;;
2105;SDS011;1059;52.548;13.408;2023-04-06T03:48:56;11.30;;;9.67;;
2105;SDS011;1059;52.548;13.408;2023-04-06T03:51:23;10.80;;;9.70;;
2105;SDS011;1059;52.548;13.408;2023-04-06T03:53:50;11.40;;;8.93;;
2105;SDS011;1059;52.548;13.408;2023-04-06T03:56:17;14.47;;;10.20;;
2105;SDS011;1059;52.548;13.408;2023-04-06T03:58:46;10.53;;;9.43;;
2105;SDS011;1059;52.548;13.408;2023-04-06T04:01:15;13.53;;;10.97;;
2105;SDS011;1059;52.548;13.408;2023-04-06T04:03:42;13.00;;;10.87;;
2105;SDS011;1059;52.548;13.408;2023-04-06T04:06:09;11.97;;;10.27;;
2105;SDS011;1059;52.548;13.408;2023-04-06T04:08:36;12.40;;;11.10;;
2105;SDS011;1059;52.548;13.408;2023-04-06T04:11:03;11.57;;;10.40;;
2105;SDS011;1059;52.548;13.408;2023-04-06T04:13:30;14.60;;;10.37;;
2105;SDS011;1059;52.548;13.408;2023-04-06T04:15:58;10.90;;;9.80;;
2105;SDS011;1059;52.548;13.408;2023-04-06T04:18:25;13.60;;;11.43;;
2105;SDS011;1059;52.548;13.408;2023-04-06T04:20:52;11.07;;;9.70;;
2105;SDS011;1059;52.548;13.408;2023-04-06T04:23:19;12.17;;;10.97;;
2105;SDS011;1059;52.548;13.408;2023-04-06T04:25:46;15.73;;;11.07;;
2105;SDS011;1059;52.548;13.408;2023-04-06T04:28:13;17.47;;;11.40;;
2105;SDS011;1059;52.548;13.408;2023-04-06T04:30:40;13.10;;;10.40;;
2105;SDS011;1059;52.548;13.408;2023-04-06T04:33:08;13.70;;;10.60;;
2105;SDS011;1059;52.548;13.408;2023-04-06T04:35:35;12.03;;;10.70;;
2105;SDS011;1059;52.548;13.408;2023-04-06T04:38:02;16.13;;;10.23;;
2105;SDS011;1059;52.548;13.408;2023-04-06T04:40:30;11.40;;;10.30;;
2105;SDS011;1059;52.548;13.408;2023-04-06T04:42:57;16.13;;;10.63;;
2105;SDS011;1059;52.548;13.408;2023-04-06T04:45:24;10.80;;;9.70;;
2105;SDS011;1059;52.548;13.408;2023-04-06T04:47:51;12.63;;;11.17;;
2105;SDS011;1059;52.548;13.408;2023-04-06T04:50:19;14.30;;;10.83;;
2105;SDS011;1059;52.548;13.408;2023-04-06T04:52:46;13.70;;;10.87;;
2105;SDS011;1059;52.548;13.408;2023-04-06T04:55:13;12.43;;;9.73;;
2105;SDS011;1059;52.548;13.408;2023-04-06T04:57:40;11.80;;;10.70;;
2105;SDS011;1059;52.548;13.408;2023-04-06T05:00:07;12.60;;;10.73;;
2105;SDS011;1059;52.548;13.408;2023-04-06T05:02:35;17.90;;;11.10;;
2105;SDS011;1059;52.548;13.408;2023-04-06T05:05:02;14.73;;;11.13;;
2105;SDS011;1059;52.548;13.408;2023-04-06T05:07:30;15.40;;;10.87;;
2105;SDS011;1059;52.548;13.408;2023-04-06T05:09:57;11.60;;;10.20;;
2105;SDS011;1059;52.548;13.408;2023-04-06T05:12:24;14.53;;;11.17;;
2105;SDS011;1059;52.548;13.408;2023-04-06T05:14:52;13.00;;;11.13;;
2105;SDS011;1059;52.548;13.408;2023-04-06T05:17:19;14.73;;;10.67;;
2105;SDS011;1059;52.548;13.408;2023-04-06T05:19:46;14.17;;;11.67;;
2105;SDS011;1059;52.548;13.408;2023-04-06T05:22:14;15.43;;;11.13;;
2105;SDS011;1059;52.548;13.408;2023-04-06T05:24:44;18.83;;;12.30;;
2105;SDS011;1059;52.548;13.408;2023-04-06T05:27:11;12.93;;;11.20;;
2105;SDS011;1059;52.548;13.408;2023-04-06T05:29:38;17.33;;;11.70;;
2105;SDS011;1059;52.548;13.408;2023-04-06T05:32:05;12.83;;;11.53;;
2105;SDS011;1059;52.548;13.408;2023-04-06T05:34:32;14.03;;;12.43;;
2105;SDS011;1059;52.548;13.408;2023-04-06T05:36:59;13.13;;;11.83;;
2105;SDS011;1059;52.548;13.408;2023-04-06T05:39:26;11.33;;;10.20;;
2105;SDS011;1059;52.548;13.408;2023-04-06T05:41:54;12.63;;;11.30;;
2105;SDS011;1059;52.548;13.408;2023-04-06T05:44:21;13.30;;;11.30;;
2105;SDS011;1059;52.548;13.408;2023-04-06T05:46:48;14.23;;;12.07;;
2105;SDS011;1059;52.548;13.408;2023-04-06T05:49:15;14.40;;;12.03;;
2105;SDS011;1059;52.548;13.408;2023-04-06T05:51:42;17.87;;;12.03;;
2105;SDS011;1059;52.548;13.408;2023-04-06T05:54:09;12.67;;;11.10;;
2105;SDS011;1059;52.548;13.408;2023-04-06T05:56:36;13.53;;;11.77;;
2105;SDS011;1059;52.548;13.408;2023-04-06T05:59:05;12.57;;;11.13;;
2105;SDS011;1059;52.548;13.408;2023-04-06T06:01:32;12.90;;;10.80;;
2105;SDS011;1059;52.548;13.408;2023-04-06T06:04:00;15.53;;;10.80;;
2105;SDS011;1059;52.548;13.408;2023-04-06T06:06:27;12.07;;;10.87;;
2105;SDS011;1059;52.548;13.408;2023-04-06T06:08:55;12.00;;;10.47;;
2105;SDS011;1059;52.548;13.408;2023-04-06T06:11:24;11.20;;;10.20;;
2105;SDS011;1059;52.548;13.408;2023-04-06T06:13:51;12.77;;;10.73;;
2105;SDS011;1059;52.548;13.408;2023-04-06T06:16:19;12.80;;;10.47;;
2105;SDS011;1059;52.548;13.408;2023-04-06T06:18:46;11.40;;;10.20;;
2105;SDS011;1059;52.548;13.408;2023-04-06T06:21:13;11.80;;;9.97;;
2105;SDS011;1059;52.548;13.408;2023-04-06T06:23:42;11.20;;;10.10;;
2105;SDS011;1059;52.548;13.408;2023-04-06T06:26:09;11.53;;;10.17;;
2105;SDS011;1059;52.548;13.408;2023-04-06T06:28:36;11.17;;;9.97;;
2105;SDS011;1059;52.548;13.408;2023-04-06T06:31:02;13.23;;;9.87;;
2105;SDS011;1059;52.548;13.408;2023-04-06T06:33:31;11.57;;;10.20;;
2105;SDS011;1059;52.548;13.408;2023-04-06T06:35:58;15.27;;;10.07;;
2105;SDS011;1059;52.548;13.408;2023-04-06T06:38:25;12.30;;;9.07;;
2105;SDS011;1059;52.548;13.408;2023-04-06T06:40:52;11.13;;;9.80;;
2105;SDS011;1059;52.548;13.408;2023-04-06T06:43:19;15.23;;;9.73;;
2105;SDS011;1059;52.548;13.408;2023-04-06T06:45:46;16.03;;;10.30;;
2105;SDS011;1059;52.548;13.408;2023-04-06T06:48:13;11.50;;;10.40;;
2105;SDS011;1059;52.548;13.408;2023-04-06T06:50:41;11.03;;;9.37;;
2105;SDS011;1059;52.548;13.408;2023-04-06T06:53:08;10.97;;;9.83;;
2105;SDS011;1059;52.548;13.408;2023-04-06T06:55:36;11.87;;;9.73;;
2105;SDS011;1059;52.548;13.408;2023-04-06T06:58:03;11.60;;;10.40;;
2105;SDS011;1059;52.548;13.408;2023-04-06T07:00:31;11.20;;;8.77;;
2105;SDS011;1059;52.548;13.408;2023-04-06T07:02:58;11.80;;;8.47;;
2105;SDS011;1059;52.548;13.408;2023-04-06T07:05:25;10.63;;;8.20;;
2105;SDS011;1059;52.548;13.408;2023-04-06T07:07:53;11.93;;;8.97;;
2105;SDS011;1059;52.548;13.408;2023-04-06T07:10:20;10.33;;;9.20;;
2105;SDS011;1059;52.548;13.408;2023-04-06T07:12:47;10.60;;;8.27;;
2105;SDS011;1059;52.548;13.408;2023-04-06T07:15:14;11.80;;;7.83;;
2105;SDS011;1059;52.548;13.408;2023-04-06T07:17:42;9.40;;;8.27;;
2105;SDS011;1059;52.548;13.408;2023-04-06T07:20:10;9.80;;;8.20;;
2105;SDS011;1059;52.548;13.408;2023-04-06T07:22:37;16.93;;;8.33;;
2105;SDS011;1059;52.548;13.408;2023-04-06T07:25:06;11.80;;;8.53;;
2105;SDS011;1059;52.548;13.408;2023-04-06T07:27:34;10.40;;;8.57;;
2105;SDS011;1059;52.548;13.408;2023-04-06T07:30:01;12.33;;;8.83;;
2105;SDS011;1059;52.548;13.408;2023-04-06T07:32:28;8.70;;;7.77;;
2105;SDS011;1059;52.548;13.408;2023-04-06T07:34:55;13.17;;;7.03;;
2105;SDS011;1059;52.548;13.408;2023-04-06T07:37:23;9.50;;;7.67;;
2105;SDS011;1059;52.548;13.408;2023-04-06T07:39:50;16.50;;;11.40;;
2105;SDS011;1059;52.548;13.408;2023-04-06T07:42:18;7.20;;;6.50;;
2105;SDS011;1059;52.548;13.408;2023-04-06T07:44:45;10.53;;;6.73;;
2105;SDS011;1059;52.548;13.408;2023-04-06T07:47:12;9.80;;;7.77;;
2105;SDS011;1059;52.548;13.408;2023-04-06T07:49:39;12.33;;;7.43;;
2105;SDS011;1059;52.548;13.408;2023-04-06T07:52:06;14.63;;;7.47;;
2105;SDS011;1059;52.548;13.408;2023-04-06T07:54:33;6.00;;;5.40;;
2105;SDS011;1059;52.548;13.408;2023-04-06T07:57:00;7.40;;;6.60;;
2105;SDS011;1059;52.548;13.408;2023-04-06T07:59:28;7.83;;;6.33;;
2105;SDS011;1059;52.548;13.408;2023-04-06T08:01:55;9.17;;;6.97;;
2105;SDS011;1059;52.548;13.408;2023-04-06T08:04:22;9.57;;;7.30;;
2105;SDS011;1059;52.548;13.408;2023-04-06T08:06:49;8.23;;;6.00;;
2105;SDS011;1059;52.548;13.408;2023-04-06T08:09:16;6.93;;;6.23;;
2105;SDS011;1059;52.548;13.408;2023-04-06T08:11:43;15.97;;;6.20;;
2105;SDS011;1059;52.548;13.408;2023-04-06T08:14:11;8.00;;;6.17;;
2105;SDS011;1059;52.548;13.408;2023-04-06T08:16:39;6.13;;;5.53;;
2105;SDS011;1059;52.548;13.408;2023-04-06T08:19:06;6.37;;;5.73;;
2105;SDS011;1059;52.548;13.408;2023-04-06T08:21:34;8.90;;;5.57;;
2105;SDS011;1059;52.548;13.408;2023-04-06T08:24:01;7.50;;;5.40;;
2105;SDS011;1059;52.548;13.408;2023-04-06T08:26:28;9.63;;;5.40;;
2105;SDS011;1059;52.548;13.408;2023-04-06T08:28:55;7.13;;;4.93;;
2105;SDS011;1059;52.548;13.408;2023-04-06T08:31:22;7.20;;;5.63;;
2105;SDS011;1059;52.548;13.408;2023-04-06T08:33:51;6.87;;;4.90;;
2105;SDS011;1059;52.548;13.408;2023-04-06T08:36:17;4.87;;;4.47;;
2105;SDS011;1059;52.548;13.408;2023-04-06T08:38:47;5.00;;;4.40;;
2105;SDS011;1059;52.548;13.408;2023-04-06T08:41:15;5.90;;;4.10;;
2105;SDS011;1059;52.548;13.408;2023-04-06T08:43:43;4.63;;;4.03;;
2105;SDS011;1059;52.548;13.408;2023-04-06T08:46:13;8.90;;;4.13;;
2105;SDS011;1059;52.548;13.408;2023-04-06T08:48:40;5.63;;;4.30;;
2105;SDS011;1059;52.548;13.408;2023-04-06T08:51:09;4.43;;;4.03;;
2105;SDS011;1059;52.548;13.408;2023-04-06T08:53:36;4.00;;;3.70;;
2105;SDS011;1059;52.548;13.408;2023-04-06T08:56:04;5.90;;;3.50;;
2105;SDS011;1059;52.548;13.408;2023-04-06T08:58:32;4.53;;;3.37;;
2105;SDS011;1059;52.548;13.408;2023-04-06T09:01:02;9.60;;;3.93;;
2105;SDS011;1059;52.548;13.408;2023-04-06T09:03:33;6.00;;;4.00;;
2105;SDS011;1059;52.548;13.408;2023-04-06T09:06:03;6.37;;;3.50;;
2105;SDS011;1059;52.548;13.408;2023-04-06T09:08:32;3.57;;;3.10;;
2105;SDS011;1059;52.548;13.408;2023-04-06T09:10:59;3.30;;;3.00;;
2105;SDS011;1059;52.548;13.408;2023-04-06T09:13:27;4.23;;;3.20;;
2105;SDS011;1059;52.548;13.408;2023-04-06T09:16:01;3.67;;;3.37;;
2105;SDS011;1059;52.548;13.408;2023-04-06T09:18:29;3.53;;;3.23;;
2105;SDS011;1059;52.548;13.408;2023-04-06T09:20:57;3.57;;;3.23;;
2105;SDS011;1059;52.548;13.408;2023-04-06T09:23:25;5.60;;;3.27;;
2105;SDS011;1059;52.548;13.408;2023-04-06T09:25:57;5.03;;;3.10;;
2105;SDS011;1059;52.548;13.408;2023-04-06T09:28:43;6.10;;;3.83;;
2105;SDS011;1059;52.548;13.408;2023-04-06T09:31:11;5.83;;;3.50;;
2105;SDS011;1059;52.548;13.408;2023-04-06T09:33:40;3.50;;;2.47;;
2105;SDS011;1059;52.548;13.408;2023-04-06T09:36:08;3.93;;;2.90;;
2105;SDS011;1059;52.548;13.408;2023-04-06T09:38:38;3.80;;;2.60;;
2105;SDS011;1059;52.548;13.408;2023-04-06T09:41:21;4.20;;;2.73;;
2105;SDS011;1059;52.548;13.408;2023-04-06T09:43:49;5.70;;;3.97;;
2105;SDS011;1059;52.548;13.408;2023-04-06T09:46:17;4.90;;;3.27;;
2105;SDS011;1059;52.548;13.408;2023-04-06T09:48:47;4.50;;;3.00;;
2105;SDS011;1059;52.548;13.408;2023-04-06T09:51:15;5.70;;;3.40;;
2105;SDS011;1059;52.548;13.408;2023-04-06T09:53:44;3.37;;;2.90;;
2105;SDS011;1059;52.548;13.408;2023-04-06T09:56:16;2.80;;;2.50;;
2105;SDS011;1059;52.548;13.408;2023-04-06T09:58:48;3.00;;;2.70;;
2105;SDS011;1059;52.548;13.408;2023-04-06T10:01:19;2.90;;;2.70;;
2105;SDS011;1059;52.548;13.408;2023-04-06T10:03:49;8.50;;;2.47;;
2105;SDS011;1059;52.548;13.408;2023-04-06T10:06:22;4.07;;;2.50;;
2105;SDS011;1059;52.548;13.408;2023-04-06T10:08:51;2.63;;;2.43;;
2105;SDS011;1059;52.548;13.408;2023-04-06T10:11:19;2.93;;;2.40;;
2105;SDS011;1059;52.548;13.408;2023-04-06T10:13:48;5.37;;;2.67;;
2105;SDS011;1059;52.548;13.408;2023-04-06T10:16:16;2.30;;;1.87;;
2105;SDS011;1059;52.548;13.408;2023-04-06T10:18:45;3.50;;;2.30;;
2105;SDS011;1059;52.548;13.408;2023-04-06T10:21:16;4.37;;;2.67;;
2105;SDS011;1059;52.548;13.408;2023-04-06T10:23:47;2.87;;;2.57;;
2105;SDS011;1059;52.548;13.408;2023-04-06T10:26:17;3.07;;;2.40;;
2105;SDS011;1059;52.548;13.408;2023-04-06T10:28:47;2.90;;;2.50;;
2105;SDS011;1059;52.548;13.408;2023-04-06T10:31:15;2.63;;;2.20;;
2105;SDS011;1059;52.548;13.408;2023-04-06T10:33:54;5.20;;;2.47;;
2105;SDS011;1059;52.548;13.408;2023-04-06T10:36:22;3.33;;;1.90;;
2105;SDS011;1059;52.548;13.408;2023-04-06T10:38:53;3.87;;;2.43;;
2105;SDS011;1059;52.548;13.408;2023-04-06T10:41:22;3.50;;;2.47;;
2105;SDS011;1059;52.548;13.408;2023-04-06T10:43:56;2.70;;;2.47;;
2105;SDS011;1059;52.548;13.408;2023-04-06T10:46:26;2.70;;;2.50;;
2105;SDS011;1059;52.548;13.408;2023-04-06T10:48:54;3.60;;;2.47;;
2105;SDS011;1059;52.548;13.408;2023-04-06T10:51:24;3.20;;;3.00;;
2105;SDS011;1059;52.548;13.408;2023-04-06T10:53:53;2.67;;;2.20;;
2105;SDS011;1059;52.548;13.408;2023-04-06T10:56:21;2.30;;;1.80;;
2105;SDS011;1059;52.548;13.408;2023-04-06T10:58:51;3.23;;;2.60;;
2105;SDS011;1059;52.548;13.408;2023-04-06T11:04:10;4.90;;;2.73;;
2105;SDS011;1059;52.548;13.408;2023-04-06T11:06:41;3.70;;;2.33;;
2105;SDS011;1059;52.548;13.408;2023-04-06T11:09:22;2.90;;;2.53;;
2105;SDS011;1059;52.548;13.408;2023-04-06T11:11:53;3.27;;;2.40;;
2105;SDS011;1059;52.548;13.408;2023-04-06T11:14:21;3.57;;;2.47;;
2105;SDS011;1059;52.548;13.408;2023-04-06T11:16:49;2.60;;;2.40;;
2105;SDS011;1059;52.548;13.408;2023-04-06T11:19:16;2.27;;;1.83;;
2105;SDS011;1059;52.548;13.408;2023-04-06T11:21:44;3.70;;;2.37;;
2105;SDS011;1059;52.548;13.408;2023-04-06T11:24:13;2.37;;;2.17;;
2105;SDS011;1059;52.548;13.408;2023-04-06T11:26:43;4.10;;;2.10;;
2105;SDS011;1059;52.548;13.408;2023-04-06T11:29:12;3.20;;;2.27;;
2105;SDS011;1059;52.548;13.408;2023-04-06T11:31:40;2.90;;;2.30;;
2105;SDS011;1059;52.548;13.408;2023-04-06T11:34:13;6.03;;;2.70;;
2105;SDS011;1059;52.548;13.408;2023-04-06T11:36:42;4.40;;;2.47;;
2105;SDS011;1059;52.548;13.408;2023-04-06T11:39:10;2.47;;;2.27;;
2105;SDS011;1059;52.548;13.408;2023-04-06T11:41:38;4.37;;;3.03;;
2105;SDS011;1059;52.548;13.408;2023-04-06T11:44:05;4.33;;;2.30;;
2105;SDS011;1059;52.548;13.408;2023-04-06T11:46:32;5.10;;;2.47;;
2105;SDS011;1059;52.548;13.408;2023-04-06T11:48:59;7.77;;;3.07;;
2105;SDS011;1059;52.548;13.408;2023-04-06T11:51:29;2.47;;;2.17;;
2105;SDS011;1059;52.548;13.408;2023-04-06T11:53:56;3.00;;;2.70;;
2105;SDS011;1059;52.548;13.408;2023-04-06T11:56:24;3.23;;;2.43;;
2105;SDS011;1059;52.548;13.408;2023-04-06T11:58:52;2.93;;;2.37;;
2105;SDS011;1059;52.548;13.408;2023-04-06T12:01:20;2.73;;;2.33;;
2105;SDS011;1059;52.548;13.408;2023-04-06T12:03:47;2.07;;;1.87;;
2105;SDS011;1059;52.548;13.408;2023-04-06T12:06:15;2.97;;;2.20;;
2105;SDS011;1059;52.548;13.408;2023-04-06T12:08:43;3.10;;;2.23;;
2105;SDS011;1059;52.548;13.408;2023-04-06T12:11:10;2.90;;;2.70;;
2105;SDS011;1059;52.548;13.408;2023-04-06T12:13:37;3.27;;;2.10;;
2105;SDS011;1059;52.548;13.408;2023-04-06T12:16:05;2.90;;;1.97;;
2105;SDS011;1059;52.548;13.408;2023-04-06T12:18:32;3.33;;;2.20;;
2105;SDS011;1059;52.548;13.408;2023-04-06T12:20:59;4.93;;;2.47;;
2105;SDS011;1059;52.548;13.408;2023-04-06T12:23:25;2.60;;;2.37;;
2105;SDS011;1059;52.548;13.408;2023-04-06T12:25:54;3.43;;;2.40;;
2105;SDS011;1059;52.548;13.408;2023-04-06T12:28:21;4.23;;;2.67;;
2105;SDS011;1059;52.548;13.408;2023-04-06T12:30:52;3.90;;;2.40;;
2105;SDS011;1059;52.548;13.408;2023-04-06T12:33:19;2.43;;;2.23;;
2105;SDS011;1059;52.548;13.408;2023-04-06T12:35:46;2.70;;;2.03;;
2105;SDS011;1059;52.548;13.408;2023-04-06T12:38:13;3.63;;;2.20;;
2105;SDS011;1059;52.548;13.408;2023-04-06T12:40:41;3.50;;;2.80;;
2105;SDS011;1059;52.548;13.408;2023-04-06T12:43:09;2.20;;;1.90;;
2105;SDS011;1059;52.548;13.408;2023-04-06T12:45:38;2.30;;;2.10;;
2105;SDS011;1059;52.548;13.408;2023-04-06T12:48:05;6.70;;;2.43;;
2105;SDS011;1059;52.548;13.408;2023-04-06T12:50:32;2.77;;;2.13;;
2105;SDS011;1059;52.548;13.408;2023-04-06T12:52:59;4.23;;;2.37;;
2105;SDS011;1059;52.548;13.408;2023-04-06T12:55:28;3.00;;;2.70;;
2105;SDS011;1059;52.548;13.408;2023-04-06T12:57:56;6.20;;;2.47;;
2105;SDS011;1059;52.548;13.408;2023-04-06T13:00:24;3.90;;;2.90;;
2105;SDS011;1059;52.548;13.408;2023-04-06T13:02:51;3.97;;;2.13;;
2105;SDS011;1059;52.548;13.408;2023-04-06T13:05:18;3.50;;;2.97;;
2105;SDS011;1059;52.548;13.408;2023-04-06T13:07:45;2.90;;;2.43;;
2105;SDS011;1059;52.548;13.408;2023-04-06T13:10:12;3.60;;;2.30;;
2105;SDS011;1059;52.548;13.408;2023-04-06T13:12:39;2.60;;;2.03;;
2105;SDS011;1059;52.548;13.408;2023-04-06T13:15:07;2.43;;;2.00;;
2105;SDS011;1059;52.548;13.408;2023-04-06T13:17:36;3.77;;;2.57;;
2105;SDS011;1059;52.548;13.408;2023-04-06T13:20:03;3.67;;;2.00;;
2105;SDS011;1059;52.548;13.408;2023-04-06T13:22:31;2.60;;;2.40;;
2105;SDS011;1059;52.548;13.408;2023-04-06T13:24:58;3.77;;;2.70;;
2105;SDS011;1059;52.548;13.408;2023-04-06T13:27:24;3.37;;;2.30;;
2105;SDS011;1059;52.548;13.408;2023-04-06T13:29:52;2.73;;;2.50;;
2105;SDS011;1059;52.548;13.408;2023-04-06T13:32:19;3.83;;;2.50;;
2105;SDS011;1059;52.548;13.408;2023-04-06T13:34:47;2.40;;;2.20;;
2105;SDS011;1059;52.548;13.408;2023-04-06T13:37:14;3.37;;;2.40;;
2105;SDS011;1059;52.548;13.408;2023-04-06T13:39:41;4.20;;;2.37;;
2105;SDS011;1059;52.548;13.408;2023-04-06T13:42:08;4.10;;;2.77;;
2105;SDS011;1059;52.548;13.408;2023-04-06T13:44:36;3.50;;;2.13;;
2105;SDS011;1059;52.548;13.408;2023-04-06T13:47:03;4.47;;;2.10;;
2105;SDS011;1059;52.548;13.408;2023-04-06T13:49:33;3.07;;;2.30;;
2105;SDS011;1059;52.548;13.408;2023-04-06T13:52:02;2.60;;;2.20;;
2105;SDS011;1059;52.548;13.408;2023-04-06T13:54:29;2.53;;;2.30;;
2105;SDS011;1059;52.548;13.408;2023-04-06T13:56:56;2.83;;;2.50;;
2105;SDS011;1059;52.548;13.408;2023-04-06T13:59:23;2.83;;;2.30;;
2105;SDS011;1059;52.548;13.408;2023-04-06T14:01:50;5.33;;;2.60;;
2105;SDS011;1059;52.548;13.408;2023-04-06T14:04:17;4.10;;;2.53;;
2105;SDS011;1059;52.548;13.408;2023-04-06T14:06:44;2.80;;;2.40;;
2105;SDS011;1059;52.548;13.408;2023-04-06T14:09:13;2.43;;;2.23;;
2105;SDS011;1059;52.548;13.408;2023-04-06T14:11:40;2.63;;;2.43;;
2105;SDS011;1059;52.548;13.408;2023-04-06T14:14:07;3.77;;;2.53;;
2105;SDS011;1059;52.548;13.408;2023-04-06T14:16:34;6.50;;;2.70;;
2105;SDS011;1059;52.548;13.408;2023-04-06T14:19:01;2.57;;;2.10;;
2105;SDS011;1059;52.548;13.408;2023-04-06T14:21:28;6.50;;;3.27;;
2105;SDS011;1059;52.548;13.408;2023-04-06T14:23:56;2.40;;;2.20;;
2105;SDS011;1059;52.548;13.408;2023-04-06T14:26:24;3.07;;;2.23;;
2105;SDS011;1059;52.548;13.408;2023-04-06T14:28:51;2.80;;;2.60;;
2105;SDS011;1059;52.548;13.408;2023-04-06T14:31:18;4.27;;;2.93;;
2105;SDS011;1059;52.548;13.408;2023-04-06T14:33:45;2.67;;;2.47;;
2105;SDS011;1059;52.548;13.408;2023-04-06T14:36:12;4.20;;;2.50;;
2105;SDS011;1059;52.548;13.408;2023-04-06T14:38:39;3.40;;;2.50;;
2105;SDS011;1059;52.548;13.408;2023-04-06T14:41:06;2.70;;;2.33;;
2105;SDS011;1059;52.548;13.408;2023-04-06T14:43:35;3.27;;;2.60;;
2105;SDS011;1059;52.548;13.408;2023-04-06T14:46:02;2.50;;;2.30;;
2105;SDS011;1059;52.548;13.408;2023-04-06T14:48:29;2.90;;;2.60;;
2105;SDS011;1059;52.548;13.408;2023-04-06T14:50:56;4.13;;;2.73;;
2105;SDS011;1059;52.548;13.408;2023-04-06T14:53:23;5.50;;;3.10;;
2105;SDS011;1059;52.548;13.408;2023-04-06T14:55:51;3.50;;;2.77;;
2105;SDS011;1059;52.548;13.408;2023-04-06T14:58:18;3.33;;;2.60;;
2105;SDS011;1059;52.548;13.408;2023-04-06T15:00:46;3.13;;;2.30;;